createdAt,value
2023-04-15T00:00:03.670Z,94.76
2023-04-15T00:01:04.553Z,94.41
2023-04-15T00:02:03.684Z,93.89
2023-04-15T00:03:03.728Z,93.43
2023-04-15T00:04:03.677Z,93.23
2023-04-15T00:05:03.603Z,93.12
2023-04-15T00:06:03.595Z,92.71
2023-04-15T00:07:03.581Z,91.05
2023-04-15T00:08:03.552Z,89.71
2023-04-15T00:09:03.669Z,89.40
2023-04-15T00:10:03.544Z,88.94
2023-04-15T00:11:03.509Z,88.57
2023-04-15T00:12:03.508Z,88.36
2023-04-15T00:13:03.468Z,88.46
2023-04-15T00:14:03.518Z,88.67
2023-04-15T00:15:03.460Z,88.98
2023-04-15T00:16:03.460Z,89.19
2023-04-15T00:17:03.509Z,89.29
2023-04-15T00:18:03.416Z,89.50
2023-04-15T00:19:03.545Z,89.81
2023-04-15T00:20:03.396Z,90.12
2023-04-15T00:21:03.401Z,90.70
2023-04-15T00:22:03.373Z,90.70
2023-04-15T00:23:03.364Z,90.60
2023-04-15T00:24:03.349Z,90.91
2023-04-15T00:25:03.302Z,90.87
2023-04-15T00:26:03.375Z,90.77
2023-04-15T00:27:03.282Z,90.56
2023-04-15T00:28:03.295Z,90.45
2023-04-15T00:29:03.248Z,90.35
2023-04-15T00:30:03.262Z,90.14
2023-04-15T00:31:03.285Z,89.94
2023-04-15T00:32:03.235Z,90.04
2023-04-15T00:33:03.229Z,90.14
2023-04-15T00:34:03.228Z,90.04
2023-04-15T00:35:03.202Z,89.87
2023-04-15T00:36:03.208Z,89.36
2023-04-15T00:37:03.152Z,89.40
2023-04-15T00:38:03.240Z,89.44
2023-04-15T00:39:03.143Z,89.69
2023-04-15T00:40:03.132Z,90.04
2023-04-15T00:41:03.138Z,90.35
2023-04-15T00:42:03.113Z,90.60
2023-04-15T00:43:03.092Z,90.50
2023-04-15T00:44:03.081Z,90.85
2023-04-15T00:45:03.056Z,91.27
2023-04-15T00:46:03.071Z,91.78
2023-04-15T00:47:03.006Z,92.30
2023-04-15T00:48:03.069Z,92.51
2023-04-15T00:49:03.004Z,92.78
2023-04-15T00:50:03.037Z,92.98
2023-04-15T00:51:02.976Z,92.94
2023-04-15T00:52:02.985Z,92.63
2023-04-15T00:53:02.959Z,92.53
2023-04-15T00:54:02.944Z,92.63
2023-04-15T00:55:02.919Z,92.88
2023-04-15T00:56:02.925Z,93.08
2023-04-15T00:57:02.877Z,93.50
2023-04-15T00:58:02.911Z,93.81
2023-04-15T00:59:02.854Z,94.02
2023-04-15T01:00:02.878Z,94.12
2023-04-15T01:01:02.837Z,94.23
2023-04-15T01:02:09.013Z,94.54
2023-04-15T01:03:02.898Z,94.85
2023-04-15T01:04:02.973Z,94.74
2023-04-15T01:05:02.822Z,94.54
2023-04-15T01:06:03.886Z,94.43
2023-04-15T01:07:02.765Z,94.48
2023-04-15T01:08:02.804Z,94.48
2023-04-15T01:09:02.987Z,94.79
2023-04-15T01:10:02.747Z,95.00
2023-04-15T01:11:02.705Z,95.10
2023-04-15T01:12:02.728Z,95.20
2023-04-15T01:13:02.668Z,95.20
2023-04-15T01:14:02.694Z,95.10
2023-04-15T01:15:02.688Z,95.31
2023-04-15T01:16:02.722Z,95.31
2023-04-15T01:17:02.614Z,95.20
2023-04-15T01:18:02.695Z,95.25
2023-04-15T01:19:02.892Z,95.36
2023-04-15T01:20:02.608Z,95.67
2023-04-15T01:21:02.597Z,95.98
2023-04-15T01:22:02.610Z,96.19
2023-04-15T01:23:02.546Z,96.23
2023-04-15T01:24:02.562Z,96.44
2023-04-15T01:25:02.525Z,96.54
2023-04-15T01:26:02.583Z,96.75
2023-04-15T01:27:02.515Z,96.85
2023-04-15T01:28:02.481Z,96.91
2023-04-15T01:29:02.651Z,96.91
2023-04-15T01:30:02.470Z,96.81
2023-04-15T01:31:02.447Z,96.70
2023-04-15T01:32:02.465Z,96.60
2023-04-15T01:33:02.457Z,96.50
2023-04-15T01:34:02.440Z,96.39
2023-04-15T01:35:02.407Z,96.39
2023-04-15T01:36:02.407Z,96.39
2023-04-15T01:37:02.402Z,96.60
2023-04-15T01:38:02.370Z,96.70
2023-04-15T01:39:02.487Z,96.91
2023-04-15T01:40:02.371Z,97.02
2023-04-15T01:41:02.299Z,97.22
2023-04-15T01:42:02.312Z,97.17
2023-04-15T01:43:02.317Z,97.17
2023-04-15T01:44:02.323Z,97.17
2023-04-15T01:45:02.251Z,97.13
2023-04-15T01:46:02.312Z,96.82
2023-04-15T01:47:02.383Z,96.51
2023-04-15T01:48:02.318Z,96.20
2023-04-15T01:49:02.502Z,95.68
2023-04-15T01:50:02.205Z,95.47
2023-04-15T01:51:02.193Z,95.26
2023-04-15T01:52:02.187Z,95.06
2023-04-15T01:53:02.174Z,94.64
2023-04-15T01:54:02.169Z,94.54
2023-04-15T01:55:02.140Z,94.43
2023-04-15T01:56:02.201Z,94.54
2023-04-15T01:57:02.094Z,94.58
2023-04-15T01:58:02.118Z,94.74
2023-04-15T01:59:02.423Z,94.74
2023-04-15T02:00:02.113Z,94.85
2023-04-15T02:01:02.067Z,94.74
2023-04-15T02:02:02.107Z,94.64
2023-04-15T02:03:02.146Z,94.43
2023-04-15T02:04:02.118Z,94.33
2023-04-15T02:05:02.004Z,94.33
2023-04-15T02:06:02.007Z,93.98
2023-04-15T02:07:01.997Z,93.56
2023-04-15T02:08:01.975Z,93.29
2023-04-15T02:09:02.229Z,93.29
2023-04-15T02:10:01.986Z,93.29
2023-04-15T02:11:01.905Z,93.19
2023-04-15T02:12:01.920Z,93.08
2023-04-15T02:13:01.909Z,92.98
2023-04-15T02:14:01.900Z,92.98
2023-04-15T02:15:01.904Z,92.98
2023-04-15T02:16:01.912Z,92.98
2023-04-15T02:17:01.828Z,92.84
2023-04-15T02:18:01.869Z,92.63
2023-04-15T02:19:01.984Z,92.68
2023-04-15T02:20:01.850Z,92.57
2023-04-15T02:21:01.780Z,92.78
2023-04-15T02:22:01.792Z,92.88
2023-04-15T02:23:01.793Z,92.88
2023-04-15T02:24:01.773Z,93.13
2023-04-15T02:25:01.737Z,93.65
2023-04-15T02:26:01.771Z,94.17
2023-04-15T02:27:01.755Z,94.48
2023-04-15T02:28:01.756Z,94.54
2023-04-15T02:29:01.809Z,94.23
2023-04-15T02:30:01.728Z,94.12
2023-04-15T02:31:01.657Z,94.02
2023-04-15T02:32:01.719Z,93.60
2023-04-15T02:33:01.758Z,93.13
2023-04-15T02:34:01.652Z,93.13
2023-04-15T02:35:01.612Z,93.44
2023-04-15T02:36:01.619Z,93.65
2023-04-15T02:37:01.670Z,93.59
2023-04-15T02:38:01.603Z,94.11
2023-04-15T02:39:01.634Z,94.53
2023-04-15T02:40:01.618Z,94.84
2023-04-15T02:41:01.524Z,94.94
2023-04-15T02:42:01.663Z,94.73
2023-04-15T02:43:01.493Z,94.63
2023-04-15T02:44:01.514Z,94.63
2023-04-15T02:45:01.516Z,94.63
2023-04-15T02:46:01.494Z,94.53
2023-04-15T02:47:01.450Z,94.57
2023-04-15T02:48:01.453Z,94.67
2023-04-15T02:49:01.543Z,94.88
2023-04-15T02:50:01.424Z,94.88
2023-04-15T02:51:01.402Z,95.09
2023-04-15T02:52:01.498Z,94.78
2023-04-15T02:53:01.788Z,94.67
2023-04-15T02:54:01.396Z,94.78
2023-04-15T02:55:01.334Z,94.88
2023-04-15T02:56:01.381Z,94.94
2023-04-15T02:57:01.297Z,94.78
2023-04-15T02:58:01.347Z,94.67
2023-04-15T02:59:01.508Z,94.88
2023-04-15T03:00:01.308Z,94.88
2023-04-15T03:01:01.292Z,94.84
2023-04-15T03:02:01.360Z,94.73
2023-04-15T03:03:01.328Z,94.53
2023-04-15T03:04:01.310Z,94.32
2023-04-15T03:05:01.205Z,94.11
2023-04-15T03:06:01.215Z,94.01
2023-04-15T03:07:01.200Z,94.01
2023-04-15T03:08:01.479Z,94.11
2023-04-15T03:09:01.367Z,93.90
2023-04-15T03:10:01.154Z,93.70
2023-04-15T03:11:01.165Z,93.49
2023-04-15T03:12:01.157Z,93.18
2023-04-15T03:13:01.092Z,93.28
2023-04-15T03:14:01.099Z,93.32
2023-04-15T03:15:01.073Z,93.32
2023-04-15T03:16:01.177Z,93.32
2023-04-15T03:17:01.058Z,93.43
2023-04-15T03:18:01.087Z,93.63
2023-04-15T03:19:01.352Z,93.84
2023-04-15T03:20:01.060Z,94.05
2023-04-15T03:21:01.064Z,94.20
2023-04-15T03:22:00.993Z,94.30
2023-04-15T03:23:00.982Z,94.51
2023-04-15T03:24:00.951Z,94.71
2023-04-15T03:25:00.963Z,94.71
2023-04-15T03:26:00.936Z,94.78
2023-04-15T03:27:00.928Z,94.78
2023-04-15T03:28:00.902Z,94.67
2023-04-15T03:29:01.119Z,94.46
2023-04-15T03:30:00.879Z,94.46
2023-04-15T03:31:00.974Z,94.26
2023-04-15T03:32:00.846Z,94.05
2023-04-15T03:33:00.923Z,93.95
2023-04-15T03:34:00.817Z,93.84
2023-04-15T03:35:00.861Z,93.84
2023-04-15T03:36:00.793Z,93.74
2023-04-15T03:37:00.807Z,93.84
2023-04-15T03:38:00.792Z,93.84
2023-04-15T03:39:00.912Z,93.74
2023-04-15T03:40:00.740Z,93.63
2023-04-15T03:41:00.765Z,93.43
2023-04-15T03:42:00.745Z,93.12
2023-04-15T03:43:00.747Z,93.01
2023-04-15T03:44:00.711Z,93.01
2023-04-15T03:45:00.733Z,93.16
2023-04-15T03:46:01.938Z,93.57
2023-04-15T03:47:00.692Z,94.09
2023-04-15T03:48:11.382Z,94.40
2023-04-15T03:49:00.900Z,94.57
2023-04-15T03:50:00.624Z,94.67
2023-04-15T03:51:00.630Z,94.78
2023-04-15T03:52:00.600Z,94.57
2023-04-15T03:53:00.590Z,94.05
2023-04-15T03:54:00.574Z,93.57
2023-04-15T03:55:00.595Z,93.37
2023-04-15T03:56:00.529Z,93.51
2023-04-15T03:57:00.556Z,93.62
2023-04-15T03:58:00.535Z,93.97
2023-04-15T03:59:00.749Z,94.34
2023-04-15T04:00:00.477Z,94.55
2023-04-15T04:01:00.530Z,94.65
2023-04-15T04:02:00.528Z,94.76
2023-04-15T04:03:00.691Z,94.76
2023-04-15T04:04:00.531Z,94.71
2023-04-15T04:05:00.444Z,94.71
2023-04-15T04:06:00.430Z,94.40
2023-04-15T04:07:00.407Z,94.20
2023-04-15T04:08:00.371Z,93.88
2023-04-15T04:09:00.547Z,93.51
2023-04-15T04:10:00.339Z,93.20
2023-04-15T04:11:00.387Z,93.03
2023-04-15T04:12:00.316Z,93.07
2023-04-15T04:13:00.340Z,93.43
2023-04-15T04:14:00.299Z,93.74
2023-04-15T04:15:00.315Z,94.10
2023-04-15T04:16:00.384Z,94.41
2023-04-15T04:17:00.317Z,94.76
2023-04-15T04:18:00.317Z,95.18
2023-04-15T04:19:00.462Z,95.70
2023-04-15T04:20:00.331Z,96.12
2023-04-15T04:21:00.270Z,96.39
2023-04-15T04:22:00.207Z,96.59
2023-04-15T04:23:00.207Z,96.80
2023-04-15T04:24:00.191Z,96.80
2023-04-15T04:25:00.204Z,96.55
2023-04-15T04:26:00.152Z,96.24
2023-04-15T04:27:00.191Z,95.93
2023-04-15T04:28:00.192Z,95.62
2023-04-15T04:29:00.352Z,95.51
2023-04-15T04:30:00.143Z,95.40
2023-04-15T04:31:00.142Z,95.36
2023-04-15T04:32:00.108Z,95.26
2023-04-15T04:33:00.131Z,95.15
2023-04-15T04:34:00.056Z,95.05
2023-04-15T04:35:00.097Z,95.05
2023-04-15T04:36:00.017Z,94.95
2023-04-15T04:37:00.021Z,94.84
2023-04-15T04:37:59.997Z,94.59
2023-04-15T04:39:00.291Z,94.38
2023-04-15T04:39:59.980Z,94.22
2023-04-15T04:40:59.980Z,94.12
2023-04-15T04:41:59.924Z,94.12
2023-04-15T04:42:59.951Z,94.12
2023-04-15T04:43:59.933Z,94.37
2023-04-15T04:44:59.935Z,94.72
2023-04-15T04:45:59.926Z,94.93
2023-04-15T04:46:59.881Z,95.35
2023-04-15T04:47:59.954Z,95.76
2023-04-15T04:48:59.965Z,96.03
2023-04-15T04:49:59.855Z,96.24
2023-04-15T04:50:59.823Z,96.24
2023-04-15T04:51:59.818Z,96.03
2023-04-15T04:52:59.815Z,95.93
2023-04-15T04:54:00.845Z,95.83
2023-04-15T04:54:59.788Z,95.93
2023-04-15T04:55:59.768Z,96.14
2023-04-15T04:56:59.764Z,96.14
2023-04-15T04:57:59.732Z,96.18
2023-04-15T04:58:59.999Z,96.08
2023-04-15T04:59:59.708Z,96.08
2023-04-15T05:00:59.762Z,96.12
2023-04-15T05:01:59.768Z,96.37
2023-04-15T05:02:59.803Z,96.62
2023-04-15T05:03:59.764Z,96.94
2023-04-15T05:04:59.667Z,97.35
2023-04-15T05:05:59.638Z,97.77
2023-04-15T05:06:59.633Z,98.08
2023-04-15T05:07:59.610Z,98.39
2023-04-15T05:08:59.821Z,98.71
2023-04-15T05:09:59.583Z,98.92
2023-04-15T05:10:59.607Z,99.13
2023-04-15T05:11:59.539Z,99.23
2023-04-15T05:12:59.552Z,99.33
2023-04-15T05:13:59.603Z,99.44
2023-04-15T05:14:59.543Z,99.75
2023-04-15T05:15:59.553Z,99.96
2023-04-15T05:16:59.496Z,99.99
2023-04-15T05:17:59.483Z,99.99
2023-04-15T05:18:59.629Z,99.99
2023-04-15T05:19:59.433Z,99.99
2023-04-15T05:20:59.472Z,99.99
2023-04-15T05:21:59.422Z,99.99
2023-04-15T05:22:59.435Z,99.99
2023-04-15T05:23:59.392Z,99.99
2023-04-15T05:24:59.422Z,99.99
2023-04-15T05:25:59.379Z,99.99
2023-04-15T05:26:59.377Z,99.99
2023-04-15T05:27:59.350Z,99.99
2023-04-15T05:28:59.497Z,99.99
2023-04-15T05:29:59.352Z,99.99
2023-04-15T05:30:59.368Z,99.99
2023-04-15T05:31:59.309Z,99.99
2023-04-15T05:32:59.376Z,99.99
2023-04-15T05:33:59.258Z,99.99
2023-04-15T05:34:59.267Z,99.99
2023-04-15T05:35:59.255Z,99.99
2023-04-15T05:36:59.227Z,99.99
2023-04-15T05:37:59.271Z,99.99
2023-04-15T05:38:59.587Z,99.99
2023-04-15T05:39:59.175Z,99.99
2023-04-15T05:40:59.197Z,99.99
2023-04-15T05:41:59.158Z,99.99
2023-04-15T05:42:59.204Z,99.99
2023-04-15T05:43:59.126Z,99.99
2023-04-15T05:44:59.130Z,99.99
2023-04-15T05:45:59.109Z,99.99
2023-04-15T05:46:59.125Z,99.91
2023-04-15T05:47:59.110Z,99.59
2023-04-15T05:48:59.252Z,99.28
2023-04-15T05:49:59.047Z,99.07
2023-04-15T05:50:59.062Z,98.97
2023-04-15T05:51:59.084Z,98.82
2023-04-15T05:52:59.016Z,98.82
2023-04-15T05:53:58.979Z,98.72
2023-04-15T05:54:59.012Z,98.82
2023-04-15T05:55:58.959Z,98.82
2023-04-15T05:56:58.991Z,98.88
2023-04-15T05:57:58.924Z,98.99
2023-04-15T05:58:59.031Z,99.09
2023-04-15T05:59:58.914Z,99.09
2023-04-15T06:00:58.949Z,99.15
2023-04-15T06:01:58.971Z,99.25
2023-04-15T06:02:59.099Z,99.35
2023-04-15T06:03:58.917Z,99.35
2023-04-15T06:04:58.928Z,99.15
2023-04-15T06:05:58.832Z,99.04
2023-04-15T06:06:58.893Z,99.04
2023-04-15T06:07:58.811Z,98.94
2023-04-15T06:08:58.834Z,98.94
2023-04-15T06:09:58.770Z,98.94
2023-04-15T06:10:58.794Z,98.94
2023-04-15T06:11:58.779Z,98.73
2023-04-15T06:12:58.771Z,98.58
2023-04-15T06:13:58.727Z,98.48
2023-04-15T06:15:00.117Z,98.38
2023-04-15T06:15:58.734Z,98.27
2023-04-15T06:16:58.737Z,98.17
2023-04-15T06:17:58.763Z,97.91
2023-04-15T06:18:58.788Z,97.71
2023-04-15T06:19:58.650Z,97.39
2023-04-15T06:20:58.661Z,97.29
2023-04-15T06:21:58.629Z,97.04
2023-04-15T06:22:58.723Z,97.04
2023-04-15T06:23:58.620Z,96.83
2023-04-15T06:24:58.602Z,96.73
2023-04-15T06:25:58.574Z,96.52
2023-04-15T06:26:58.576Z,96.27
2023-04-15T06:27:58.559Z,96.27
2023-04-15T06:28:58.702Z,96.37
2023-04-15T06:29:58.535Z,96.54
2023-04-15T06:30:58.535Z,96.54
2023-04-15T06:31:58.598Z,96.54
2023-04-15T06:32:58.522Z,96.54
2023-04-15T06:33:58.485Z,96.29
2023-04-15T06:34:58.474Z,96.29
2023-04-15T06:35:58.495Z,96.08
2023-04-15T06:36:58.444Z,95.77
2023-04-15T06:37:58.413Z,95.77
2023-04-15T06:38:58.421Z,96.03
2023-04-15T06:39:58.377Z,96.45
2023-04-15T06:40:58.414Z,96.55
2023-04-15T06:41:58.367Z,96.97
2023-04-15T06:42:58.406Z,96.76
2023-04-15T06:43:58.339Z,96.45
2023-04-15T06:44:58.361Z,96.49
2023-04-15T06:45:58.424Z,96.66
2023-04-15T06:46:58.353Z,96.86
2023-04-15T06:47:58.343Z,96.97
2023-04-15T06:48:58.305Z,96.76
2023-04-15T06:49:58.251Z,96.66
2023-04-15T06:50:58.337Z,96.76
2023-04-15T06:51:58.252Z,97.07
2023-04-15T06:52:58.264Z,97.13
2023-04-15T06:53:58.224Z,97.13
2023-04-15T06:54:58.319Z,97.02
2023-04-15T06:55:58.175Z,96.56
2023-04-15T06:56:58.192Z,96.47
2023-04-15T06:57:58.174Z,96.36
2023-04-15T06:58:58.160Z,96.15
2023-04-15T06:59:58.118Z,95.95
2023-04-15T07:00:58.206Z,95.70
2023-04-15T07:01:58.116Z,95.39
2023-04-15T07:02:58.131Z,95.18
2023-04-15T07:03:58.123Z,94.72
2023-04-15T07:04:58.074Z,94.21
2023-04-15T07:05:58.033Z,94.10
2023-04-15T07:06:58.058Z,94.00
2023-04-15T07:07:58.013Z,93.79
2023-04-15T07:08:58.024Z,93.69
2023-04-15T07:09:57.992Z,93.38
2023-04-15T07:10:58.007Z,93.28
2023-04-15T07:11:58.002Z,93.24
2023-04-15T07:12:57.998Z,92.93
2023-04-15T07:13:57.935Z,92.31
2023-04-15T07:14:57.939Z,92.00
2023-04-15T07:15:57.908Z,91.89
2023-04-15T07:16:57.980Z,91.96
2023-04-15T07:17:57.933Z,91.17
2023-04-15T07:18:57.884Z,91.17
2023-04-15T07:19:57.855Z,91.69
2023-04-15T07:20:57.880Z,91.89
2023-04-15T07:21:57.828Z,91.58
2023-04-15T07:22:57.847Z,91.58
2023-04-15T07:23:57.791Z,91.69
2023-04-15T07:24:57.824Z,91.96
2023-04-15T07:25:57.785Z,91.75
2023-04-15T07:26:59.470Z,90.72
2023-04-15T07:27:57.749Z,90.10
2023-04-15T07:28:57.760Z,89.58
2023-04-15T07:29:57.727Z,89.17
2023-04-15T07:30:57.728Z,87.63
2023-04-15T07:31:57.712Z,87.21
2023-04-15T07:32:57.763Z,86.97
2023-04-15T07:33:57.676Z,86.55
2023-04-15T07:34:57.687Z,86.24
2023-04-15T07:35:57.654Z,86.24
2023-04-15T07:36:57.645Z,85.94
2023-04-15T07:37:57.684Z,85.89
2023-04-15T07:38:57.602Z,86.00
2023-04-15T07:39:57.626Z,85.65
2023-04-15T07:40:57.578Z,85.44
2023-04-15T07:41:57.584Z,85.34
2023-04-15T07:42:57.587Z,85.86
2023-04-15T07:43:57.575Z,85.55
2023-04-15T07:44:57.514Z,85.24
2023-04-15T07:45:57.617Z,85.75
2023-04-15T07:46:57.536Z,86.58
2023-04-15T07:47:57.515Z,86.99
2023-04-15T07:48:57.502Z,86.68
2023-04-15T07:49:57.503Z,86.06
2023-04-15T07:50:57.450Z,85.24
2023-04-15T07:51:57.481Z,82.46
2023-04-15T07:52:57.409Z,82.05
2023-04-15T07:53:57.437Z,83.59
2023-04-15T07:54:57.391Z,85.03
2023-04-15T07:55:57.408Z,84.83
2023-04-15T07:56:57.401Z,83.07
2023-04-15T07:57:57.373Z,83.18
2023-04-15T07:58:57.349Z,82.77
2023-04-15T07:59:57.356Z,83.76
2023-04-15T08:00:57.321Z,84.48
2023-04-15T08:01:57.411Z,85.10
2023-04-15T08:02:57.470Z,84.27
2023-04-15T08:03:57.437Z,84.58
2023-04-15T08:04:57.373Z,84.44
2023-04-15T08:05:57.306Z,84.75
2023-04-15T08:06:57.225Z,84.75
2023-04-15T08:07:57.254Z,83.83
2023-04-15T08:08:57.252Z,85.36
2023-04-15T08:09:57.239Z,85.36
2023-04-15T08:10:57.200Z,84.54
2023-04-15T08:11:57.217Z,83.62
2023-04-15T08:12:57.183Z,84.03
2023-04-15T08:13:57.183Z,82.59
2023-04-15T08:14:57.127Z,82.55
2023-04-15T08:15:57.176Z,83.78
2023-04-15T08:16:57.116Z,83.89
2023-04-15T08:17:57.136Z,83.44
2023-04-15T08:18:57.173Z,82.71
2023-04-15T08:19:57.074Z,81.18
2023-04-15T08:20:57.044Z,82.51
2023-04-15T08:21:57.087Z,82.31
2023-04-15T08:22:57.037Z,81.86
2023-04-15T08:23:57.036Z,81.55
2023-04-15T08:24:56.999Z,81.55
2023-04-15T08:25:57.007Z,81.20
2023-04-15T08:26:56.974Z,81.00
2023-04-15T08:27:57.011Z,81.10
2023-04-15T08:28:56.976Z,78.94
2023-04-15T08:29:56.943Z,78.94
2023-04-15T08:30:56.916Z,78.98
2023-04-15T08:31:56.995Z,79.19
2023-04-15T08:32:56.990Z,79.08
2023-04-15T08:33:56.910Z,79.39
2023-04-15T08:34:56.887Z,79.97
2023-04-15T08:35:56.917Z,80.49
2023-04-15T08:36:56.887Z,80.79
2023-04-15T08:37:56.864Z,80.79
2023-04-15T08:38:56.833Z,79.97
2023-04-15T08:39:56.842Z,79.52
2023-04-15T08:40:56.784Z,81.57
2023-04-15T08:41:56.795Z,81.57
2023-04-15T08:42:56.755Z,80.65
2023-04-15T08:43:56.797Z,80.45
2023-04-15T08:44:56.738Z,80.55
2023-04-15T08:45:56.732Z,80.51
2023-04-15T08:46:56.810Z,79.80
2023-04-15T08:47:56.775Z,79.18
2023-04-15T08:48:56.686Z,79.28
2023-04-15T08:49:56.723Z,79.04
2023-04-15T08:50:56.688Z,78.83
2023-04-15T08:51:56.694Z,79.04
2023-04-15T08:52:56.641Z,78.94
2023-04-15T08:53:56.655Z,79.04
2023-04-15T08:54:56.594Z,78.63
2023-04-15T08:55:56.625Z,78.94
2023-04-15T08:56:56.607Z,78.83
2023-04-15T08:57:56.611Z,78.63
2023-04-15T08:58:56.577Z,78.74
2023-04-15T08:59:56.540Z,78.39
2023-04-15T09:00:56.565Z,78.28
2023-04-15T09:01:56.574Z,77.67
2023-04-15T09:02:56.539Z,78.45
2023-04-15T09:03:56.586Z,78.05
2023-04-15T09:04:56.465Z,77.64
2023-04-15T09:05:56.515Z,76.98
2023-04-15T09:06:56.429Z,76.95
2023-04-15T09:07:56.474Z,75.42
2023-04-15T09:08:56.413Z,75.68
2023-04-15T09:09:56.450Z,74.97
2023-04-15T09:10:56.375Z,74.63
2023-04-15T09:11:56.392Z,73.50
2023-04-15T09:12:56.369Z,74.11
2023-04-15T09:13:56.388Z,74.32
2023-04-15T09:14:56.395Z,74.11
2023-04-15T09:15:56.356Z,73.10
2023-04-15T09:16:56.361Z,73.06
2023-04-15T09:17:56.325Z,73.16
2023-04-15T09:18:56.287Z,74.87
2023-04-15T09:19:56.286Z,71.39
2023-04-15T09:20:56.268Z,70.06
2023-04-15T09:21:58.681Z,69.45
2023-04-15T09:22:56.231Z,68.84
2023-04-15T09:23:56.237Z,68.87
2023-04-15T09:24:56.240Z,69.89
2023-04-15T09:25:56.257Z,71.29
2023-04-15T09:26:56.197Z,69.15
2023-04-15T09:27:56.192Z,68.43
2023-04-15T09:28:56.802Z,69.42
2023-04-15T09:29:56.154Z,69.62
2023-04-15T09:30:56.168Z,67.99
2023-04-15T09:31:56.154Z,68.60
2023-04-15T09:32:56.113Z,67.71
2023-04-15T09:33:56.121Z,69.96
2023-04-15T09:34:56.081Z,69.45
2023-04-15T09:35:56.086Z,69.45
2023-04-15T09:36:56.066Z,69.56
2023-04-15T09:37:56.061Z,70.37
2023-04-15T09:38:56.002Z,69.73
2023-04-15T09:39:56.013Z,69.32
2023-04-15T09:40:56.045Z,67.55
2023-04-15T09:41:55.983Z,66.83
2023-04-15T09:42:55.946Z,66.91
2023-04-15T09:43:55.978Z,66.80
2023-04-15T09:44:55.946Z,66.50
2023-04-15T09:45:56.004Z,66.60
2023-04-15T09:46:55.904Z,67.11
2023-04-15T09:47:56.964Z,67.18
2023-04-15T09:48:55.900Z,67.59
2023-04-15T09:49:55.942Z,66.57
2023-04-15T09:50:55.832Z,66.47
2023-04-15T09:52:05.113Z,65.62
2023-04-15T09:52:55.812Z,65.01
2023-04-15T09:53:55.868Z,66.03
2023-04-15T09:54:55.790Z,65.83
2023-04-15T09:55:55.795Z,62.29
2023-04-15T09:56:55.762Z,63.07
2023-04-15T09:57:55.765Z,62.77
2023-04-15T09:58:55.758Z,64.40
2023-04-15T09:59:55.756Z,65.11
2023-04-15T10:00:55.749Z,64.50
2023-04-15T10:01:55.843Z,67.05
2023-04-15T10:02:55.943Z,66.47
2023-04-15T10:03:55.861Z,68.20
2023-04-15T10:04:55.831Z,67.08
2023-04-15T10:05:55.678Z,68.10
2023-04-15T10:06:55.623Z,68.88
2023-04-15T10:07:55.639Z,68.27
2023-04-15T10:08:55.635Z,69.29
2023-04-15T10:09:55.611Z,66.88
2023-04-15T10:10:55.565Z,68.20
2023-04-15T10:11:55.582Z,67.29
2023-04-15T10:12:55.558Z,64.84
2023-04-15T10:13:55.580Z,67.29
2023-04-15T10:14:55.500Z,65.55
2023-04-15T10:15:55.595Z,68.61
2023-04-15T10:16:55.494Z,67.38
2023-04-15T10:17:55.599Z,66.33
2023-04-15T10:18:55.490Z,66.13
2023-04-15T10:19:55.517Z,64.81
2023-04-15T10:20:55.450Z,66.23
2023-04-15T10:21:55.463Z,65.83
2023-04-15T10:22:55.429Z,65.04
2023-04-15T10:23:55.445Z,65.75
2023-04-15T10:24:55.385Z,64.63
2023-04-15T10:25:55.441Z,66.77
2023-04-15T10:26:55.409Z,67.35
2023-04-15T10:27:55.377Z,67.96
2023-04-15T10:28:55.329Z,67.05
2023-04-15T10:29:55.345Z,66.23
2023-04-15T10:30:55.322Z,65.22
2023-04-15T10:31:55.358Z,64.29
2023-04-15T10:32:55.326Z,66.13
2023-04-15T10:33:55.291Z,65.92
2023-04-15T10:34:55.291Z,66.54
2023-04-15T10:35:55.254Z,68.34
2023-04-15T10:36:55.209Z,66.20
2023-04-15T10:37:55.242Z,66.41
2023-04-15T10:38:55.216Z,66.10
2023-04-15T10:39:55.234Z,63.96
2023-04-15T10:40:55.173Z,63.68
2023-04-15T10:41:55.199Z,64.70
2023-04-15T10:42:55.138Z,65.42
2023-04-15T10:43:55.160Z,64.20
2023-04-15T10:44:55.160Z,63.65
2023-04-15T10:45:55.139Z,65.19
2023-04-15T10:46:55.195Z,63.65
2023-04-15T10:47:55.141Z,64.37
2023-04-15T10:48:55.098Z,65.28
2023-04-15T10:49:55.108Z,66.61
2023-04-15T10:50:55.040Z,66.17
2023-04-15T10:51:55.039Z,64.44
2023-04-15T10:52:55.020Z,63.83
2023-04-15T10:53:55.042Z,64.03
2023-04-15T10:54:54.985Z,63.59
2023-04-15T10:55:54.974Z,63.39
2023-04-15T10:56:54.972Z,62.98
2023-04-15T10:57:55.021Z,63.59
2023-04-15T10:58:54.911Z,63.90
2023-04-15T10:59:54.997Z,65.33
2023-04-15T11:00:54.910Z,65.22
2023-04-15T11:01:55.057Z,64.51
2023-04-15T11:02:55.020Z,65.43
2023-04-15T11:03:55.031Z,65.39
2023-04-15T11:04:55.110Z,63.57
2023-04-15T11:05:54.854Z,63.46
2023-04-15T11:06:54.815Z,63.77
2023-04-15T11:07:54.826Z,63.23
2023-04-15T11:08:54.805Z,61.71
2023-04-15T11:09:54.807Z,63.33
2023-04-15T11:10:54.798Z,63.74
2023-04-15T11:11:54.789Z,62.18
2023-04-15T11:12:54.830Z,65.44
2023-04-15T11:13:54.778Z,65.23
2023-04-15T11:14:54.732Z,60.36
2023-04-15T11:15:54.793Z,61.17
2023-04-15T11:16:54.692Z,62.70
2023-04-15T11:17:54.829Z,62.59
2023-04-15T11:18:54.676Z,63.30
2023-04-15T11:19:54.679Z,64.62
2023-04-15T11:20:54.643Z,62.82
2023-04-15T11:21:54.633Z,60.59
2023-04-15T11:23:08.199Z,63.02
2023-04-15T11:23:54.607Z,64.12
2023-04-15T11:24:54.565Z,59.95
2023-04-15T11:25:54.615Z,59.14
2023-04-15T11:26:54.566Z,61.57
2023-04-15T11:27:54.546Z,61.65
2023-04-15T11:28:54.554Z,62.97
2023-04-15T11:29:54.520Z,61.93
2023-04-15T11:30:54.481Z,57.86
2023-04-15T11:31:54.585Z,60.81
2023-04-15T11:32:54.482Z,60.50
2023-04-15T11:33:54.550Z,60.71
2023-04-15T11:34:54.432Z,60.91
2023-04-15T11:35:54.452Z,60.30
2023-04-15T11:36:54.424Z,60.91
2023-04-15T11:37:54.467Z,61.93
2023-04-15T11:38:54.416Z,59.99
2023-04-15T11:39:54.393Z,61.41
2023-04-15T11:40:54.354Z,60.20
2023-04-15T11:41:54.395Z,59.99
2023-04-15T11:42:54.328Z,60.91
2023-04-15T11:43:54.371Z,61.41
2023-04-15T11:44:54.306Z,62.13
2023-04-15T11:45:54.411Z,60.71
2023-04-15T11:46:54.303Z,58.27
2023-04-15T11:47:54.367Z,59.72
2023-04-15T11:48:54.260Z,61.41
2023-04-15T11:49:54.306Z,58.06
2023-04-15T11:50:54.213Z,58.67
2023-04-15T11:51:54.285Z,58.27
2023-04-15T11:52:54.212Z,58.17
2023-04-15T11:53:54.193Z,56.44
2023-04-15T11:54:54.211Z,56.95
2023-04-15T11:55:54.171Z,59.89
2023-04-15T11:56:54.203Z,56.54
2023-04-15T11:57:54.146Z,53.39
2023-04-15T11:58:54.173Z,56.24
2023-04-15T11:59:54.107Z,54.90
2023-04-15T12:00:54.109Z,55.20
2023-04-15T12:01:54.122Z,57.03
2023-04-15T12:02:54.209Z,56.01
2023-04-15T12:03:54.179Z,53.88
2023-04-15T12:04:54.188Z,55.40
2023-04-15T12:05:54.036Z,60.07
2023-04-15T12:06:54.034Z,58.65
2023-04-15T12:07:54.011Z,61.08
2023-04-15T12:08:54.072Z,63.29
2023-04-15T12:09:53.969Z,56.79
2023-04-15T12:10:53.969Z,53.88
2023-04-15T12:11:53.947Z,55.50
2023-04-15T12:12:53.973Z,55.91
2023-04-15T12:13:53.963Z,55.50
2023-04-15T12:14:53.923Z,52.46
2023-04-15T12:15:53.890Z,55.40
2023-04-15T12:16:53.936Z,59.36
2023-04-15T12:17:53.926Z,54.97
2023-04-15T12:18:53.953Z,54.26
2023-04-15T12:19:53.835Z,56.09
2023-04-15T12:20:53.840Z,55.78
2023-04-15T12:21:53.817Z,52.94
2023-04-15T12:22:53.869Z,53.45
2023-04-15T12:23:53.788Z,54.77
2023-04-15T12:24:53.805Z,53.14
2023-04-15T12:25:53.740Z,53.65
2023-04-15T12:26:53.809Z,52.64
2023-04-15T12:27:53.722Z,53.42
2023-04-15T12:28:53.738Z,53.52
2023-04-15T12:29:53.724Z,57.78
2023-04-15T12:30:53.793Z,55.43
2023-04-15T12:31:53.677Z,52.61
2023-04-15T12:32:53.704Z,52.92
2023-04-15T12:33:53.645Z,50.68
2023-04-15T12:34:53.662Z,51.52
2023-04-15T12:35:53.609Z,53.85
2023-04-15T12:36:53.647Z,52.97
2023-04-15T12:37:53.598Z,54.46
2023-04-15T12:38:53.608Z,53.75
2023-04-15T12:39:53.562Z,52.20
2023-04-15T12:40:53.583Z,50.86
2023-04-15T12:41:53.574Z,48.43
2023-04-15T12:42:53.548Z,51.27
2023-04-15T12:43:53.520Z,51.17
2023-04-15T12:44:53.516Z,52.39
2023-04-15T12:45:53.504Z,52.51
2023-04-15T12:46:53.644Z,50.48
2023-04-15T12:47:53.469Z,48.46
2023-04-15T12:48:53.469Z,47.85
2023-04-15T12:49:53.461Z,47.44
2023-04-15T12:50:53.450Z,45.72
2023-04-15T12:51:53.405Z,42.68